KBGR/BGR METAR and TAF weather

Enter ICAO airport designator
Station Type Date Time Source
KBGR METAR 2021/05/13 05:53 UTC NOAA

KBGR 130553Z 00000KT 10SM CLR 03/02 A3010 RMK AO2 SLP193 T00280017 10128 20028 51003


Station Type Date Time Source
KBGR Decoded METAR 2021/05/13 05:53 UTC NOAA

BANGOR INT'L AIRPORT, ME, United States (KBGR) 44-48N 068-49W 57M
May 13, 2021 - 01:53 AM EDT / 2021.05.13 0553 UTC
Wind: Calm:0
Visibility: 10 mile(s):0
Sky conditions: clear
Temperature: 37.0 F (2.8 C)
Dew Point: 35.1 F (1.7 C)
Relative Humidity: 92%
Pressure (altimeter): 30.1 in. Hg (1019 hPa)
Pressure tendency: 0.01 inches (0.3 hPa) higher than three hours ago
ob: KBGR 130553Z 00000KT 10SM CLR 03/02 A3010 RMK AO2 SLP193 T00280017 10128 20028 51003
cycle: 6

Station Type Date Time Source
KBGR TAF 2021/05/13 06:21 UTC NOAA

TAF KBGR 130520Z 1306/1406 VRB02KT P6SM BKN100
FM131400 30006KT P6SM FEW200
FM131700 31010G20KT P6SM FEW120
FM140000 30006KT P6SM SCT100

Example: see airport list